createdAt,value
2022-09-18T00:01:33.056Z,1.55
2022-09-18T00:04:06.860Z,1.60
2022-09-18T00:06:38.292Z,1.50
2022-09-18T00:09:09.313Z,1.38
2022-09-18T00:11:39.806Z,1.20
2022-09-18T00:14:09.875Z,1.38
2022-09-18T00:16:41.082Z,1.40
2022-09-18T00:19:09.316Z,1.60
2022-09-18T00:21:41.586Z,1.42
2022-09-18T00:24:09.145Z,1.30
2022-09-18T00:26:36.827Z,1.42
2022-09-18T00:29:05.420Z,1.55
2022-09-18T00:31:35.264Z,1.40
2022-09-18T00:34:07.830Z,1.27
2022-09-18T00:36:37.519Z,1.88
2022-09-18T00:39:06.873Z,1.67
2022-09-18T00:41:37.899Z,1.70
2022-09-18T00:44:32.901Z,1.13
2022-09-18T00:47:08.073Z,2.25
2022-09-18T00:49:38.348Z,1.13
2022-09-18T00:52:07.255Z,1.38
2022-09-18T00:54:38.882Z,1.50
2022-09-18T00:57:11.797Z,1.30
2022-09-18T00:59:42.970Z,1.23
2022-09-18T01:02:12.478Z,1.15
2022-09-18T01:04:40.248Z,1.83
2022-09-18T01:07:34.187Z,1.58
2022-09-18T01:10:13.753Z,1.65
2022-09-18T01:13:21.808Z,1.60
2022-09-18T01:16:15.453Z,0.95
2022-09-18T01:19:00.956Z,0.93
2022-09-18T01:22:00.704Z,1.17
2022-09-18T01:25:00.307Z,1.27
2022-09-18T01:27:39.760Z,1.05
2022-09-18T01:30:09.564Z,1.10
2022-09-18T01:32:57.184Z,1.33
2022-09-18T01:35:42.286Z,1.38
2022-09-18T01:38:18.162Z,1.30
2022-09-18T01:40:50.570Z,1.70
2022-09-18T01:43:20.294Z,2.00
2022-09-18T01:45:52.046Z,2.63
2022-09-18T01:48:32.871Z,2.30
2022-09-18T01:51:09.836Z,2.60
2022-09-18T01:53:48.317Z,2.63
2022-09-18T01:56:31.438Z,2.83
2022-09-18T01:59:02.756Z,2.65
2022-09-18T02:01:42.997Z,2.45
2022-09-18T02:04:16.586Z,1.95
2022-09-18T02:09:17.878Z,1.65
2022-09-18T02:11:52.774Z,1.42
2022-09-18T02:14:37.483Z,1.30
2022-09-18T02:17:36.090Z,1.70
2022-09-18T02:20:10.995Z,1.52
2022-09-18T02:22:40.003Z,1.70
2022-09-18T02:25:11.973Z,1.77
2022-09-18T02:27:42.556Z,1.88
2022-09-18T02:30:11.133Z,1.77
2022-09-18T02:32:40.251Z,1.58
2022-09-18T02:35:10.277Z,1.27
2022-09-18T02:37:54.052Z,1.45
2022-09-18T02:40:42.384Z,1.40
2022-09-18T02:43:42.629Z,1.08
2022-09-18T02:46:30.573Z,1.38
2022-09-18T02:49:28.705Z,1.30
2022-09-18T02:52:15.616Z,1.08
2022-09-18T02:54:53.616Z,1.00
2022-09-18T02:57:28.600Z,1.52
2022-09-18T02:59:59.457Z,1.10
2022-09-18T03:02:28.615Z,0.82
2022-09-18T03:04:56.953Z,1.52
2022-09-18T03:07:33.332Z,1.05
2022-09-18T03:10:02.089Z,1.30
2022-09-18T03:12:30.319Z,1.25
2022-09-18T03:14:57.985Z,1.05
2022-09-18T03:17:25.583Z,1.60
2022-09-18T03:19:54.086Z,1.55
2022-09-18T03:22:21.694Z,1.02
2022-09-18T03:24:49.589Z,1.00
2022-09-18T03:27:18.731Z,0.80
2022-09-18T03:29:46.730Z,0.50
2022-09-18T03:32:16.610Z,0.63
2022-09-18T03:34:47.406Z,0.43
2022-09-18T03:37:15.974Z,0.32
2022-09-18T03:39:44.832Z,0.40
2022-09-18T03:42:15.032Z,0.68
2022-09-18T03:44:42.801Z,0.40
2022-09-18T03:47:19.415Z,0.80
2022-09-18T03:49:48.124Z,0.80
2022-09-18T03:52:15.671Z,0.70
2022-09-18T03:54:50.689Z,0.52
2022-09-18T03:57:46.408Z,0.70
2022-09-18T04:00:40.036Z,0.52
2022-09-18T04:03:14.480Z,0.52
2022-09-18T04:06:16.946Z,1.10
2022-09-18T04:09:10.720Z,1.08
2022-09-18T04:11:44.560Z,1.33
2022-09-18T04:14:14.386Z,1.70
2022-09-18T04:16:41.839Z,1.50
2022-09-18T04:19:09.665Z,1.83
2022-09-18T04:21:40.025Z,2.30
2022-09-18T04:24:07.491Z,1.77
2022-09-18T04:26:36.824Z,2.03
2022-09-18T04:29:05.380Z,2.00
2022-09-18T04:31:33.564Z,2.30
2022-09-18T04:34:06.096Z,2.20
2022-09-18T04:36:34.643Z,1.83
2022-09-18T04:39:02.111Z,1.80
2022-09-18T04:41:29.777Z,1.98
2022-09-18T04:43:58.305Z,2.90
2022-09-18T04:46:25.877Z,2.15
2022-09-18T04:48:54.200Z,2.88
2022-09-18T04:51:26.833Z,2.57
2022-09-18T04:53:54.592Z,2.78
2022-09-18T04:56:23.698Z,3.60
2022-09-18T04:58:53.244Z,2.40
2022-09-18T05:01:20.734Z,2.60
2022-09-18T05:03:48.609Z,2.65
2022-09-18T05:06:24.714Z,2.80
2022-09-18T05:08:52.332Z,2.90
2022-09-18T05:11:20.823Z,2.58
2022-09-18T05:13:49.076Z,2.65
2022-09-18T05:16:18.008Z,2.75
2022-09-18T05:18:57.538Z,2.80
2022-09-18T05:21:25.635Z,2.40
2022-09-18T05:23:53.356Z,2.15
2022-09-18T05:26:21.316Z,2.17
2022-09-18T05:28:50.253Z,2.08
2022-09-18T05:31:18.332Z,1.60
2022-09-18T05:33:47.369Z,1.45
2022-09-18T05:36:15.251Z,1.20
2022-09-18T05:38:42.796Z,1.40
2022-09-18T05:41:10.191Z,1.55
2022-09-18T05:43:39.063Z,1.55
2022-09-18T05:46:11.209Z,1.85
2022-09-18T05:48:50.334Z,1.50
2022-09-18T05:51:20.105Z,2.80
2022-09-18T05:53:48.643Z,1.63
2022-09-18T05:56:22.062Z,1.30
2022-09-18T05:58:49.713Z,1.08
2022-09-18T06:01:17.917Z,1.17
2022-09-18T06:04:05.996Z,1.20
2022-09-18T06:06:56.923Z,1.33
2022-09-18T06:09:24.404Z,1.75
2022-09-18T06:11:52.063Z,1.10
2022-09-18T06:14:19.687Z,1.50
2022-09-18T06:16:48.525Z,2.00
2022-09-18T06:19:18.289Z,1.70
2022-09-18T06:21:49.039Z,2.20
2022-09-18T06:24:23.069Z,1.50
2022-09-18T06:27:08.042Z,1.60
2022-09-18T06:29:42.072Z,1.20
2022-09-18T06:32:13.015Z,1.30
2022-09-18T06:34:41.310Z,1.20
2022-09-18T06:37:13.045Z,0.60
2022-09-18T06:39:41.146Z,0.50
2022-09-18T06:42:11.295Z,0.30
2022-09-18T06:45:02.457Z,0.60
2022-09-18T06:47:31.229Z,0.50
2022-09-18T06:49:58.633Z,0.40
2022-09-18T06:52:28.224Z,0.40
2022-09-18T06:55:00.982Z,0.40
2022-09-18T06:57:32.775Z,0.40
2022-09-18T07:00:00.445Z,0.30
2022-09-18T07:02:32.266Z,0.40
2022-09-18T07:05:19.837Z,0.43
2022-09-18T07:07:48.291Z,0.40
2022-09-18T07:10:17.435Z,0.60
2022-09-18T07:12:48.996Z,0.93
2022-09-18T07:15:20.241Z,0.80
2022-09-18T07:17:48.224Z,0.95
2022-09-18T07:20:18.753Z,1.02
2022-09-18T07:22:58.839Z,0.85
2022-09-18T07:25:39.169Z,0.90
2022-09-18T07:28:10.438Z,0.90
2022-09-18T07:30:45.338Z,1.10
2022-09-18T07:33:12.985Z,0.90
2022-09-18T07:38:15.250Z,0.80
2022-09-18T07:40:53.076Z,0.60
2022-09-18T07:43:28.737Z,0.60
2022-09-18T07:45:56.424Z,0.70
2022-09-18T07:48:24.341Z,1.15
2022-09-18T07:50:59.042Z,1.70
2022-09-18T07:53:26.754Z,1.75
2022-09-18T07:55:57.660Z,2.10
2022-09-18T07:58:27.063Z,2.35
2022-09-18T08:01:20.702Z,2.13
2022-09-18T08:03:51.433Z,1.90
2022-09-18T08:06:18.839Z,2.40
2022-09-18T08:09:03.270Z,2.08
2022-09-18T08:11:56.350Z,2.72
2022-09-18T08:14:30.535Z,2.72
2022-09-18T08:17:14.701Z,3.17
2022-09-18T08:20:07.147Z,2.63
2022-09-18T08:22:44.116Z,2.92
2022-09-18T08:25:13.289Z,2.50
2022-09-18T08:27:44.536Z,2.72
2022-09-18T08:30:15.056Z,3.00
2022-09-18T08:32:44.053Z,3.22
2022-09-18T08:35:12.903Z,3.13
2022-09-18T08:37:47.882Z,3.17
2022-09-18T08:40:53.449Z,2.70
2022-09-18T08:43:42.751Z,2.22
2022-09-18T08:46:32.921Z,3.15
2022-09-18T08:49:22.211Z,2.95
2022-09-18T08:52:03.654Z,3.20
2022-09-18T08:54:44.474Z,3.17
2022-09-18T08:57:25.521Z,2.72
2022-09-18T09:00:12.979Z,2.92
2022-09-18T09:02:48.432Z,3.20
2022-09-18T09:05:33.838Z,3.10
2022-09-18T09:08:21.674Z,3.25
2022-09-18T09:11:00.657Z,3.50
2022-09-18T09:13:59.183Z,4.07
2022-09-18T09:16:44.944Z,3.85
2022-09-18T09:19:41.552Z,3.70
2022-09-18T09:22:19.855Z,3.63
2022-09-18T09:24:50.692Z,3.13
2022-09-18T09:27:43.627Z,3.10
2022-09-18T09:30:46.613Z,3.15
2022-09-18T09:33:37.756Z,2.97
2022-09-18T09:36:27.405Z,3.38
2022-09-18T09:39:08.630Z,2.92
2022-09-18T09:42:08.018Z,2.85
2022-09-18T09:44:41.747Z,3.38
2022-09-18T09:47:15.091Z,2.80
2022-09-18T09:49:43.526Z,3.63
2022-09-18T09:52:21.737Z,3.30
2022-09-18T09:55:12.785Z,3.65
2022-09-18T09:57:49.556Z,2.85
2022-09-18T10:00:19.985Z,3.60
2022-09-18T10:03:15.607Z,3.80
2022-09-18T10:05:58.843Z,3.60
2022-09-18T10:08:59.684Z,2.70
2022-09-18T10:11:27.892Z,2.80
2022-09-18T10:14:12.881Z,3.17
2022-09-18T10:16:45.867Z,2.85
2022-09-18T10:21:43.748Z,2.55
2022-09-18T10:24:15.137Z,2.90
2022-09-18T10:26:48.882Z,2.75
2022-09-18T10:31:53.051Z,1.88
2022-09-18T10:34:41.498Z,2.83
2022-09-18T10:37:28.297Z,2.78
2022-09-18T10:40:01.476Z,2.03
2022-09-18T10:42:34.005Z,2.55
2022-09-18T10:45:26.341Z,2.22
2022-09-18T10:48:13.795Z,2.35
2022-09-18T10:50:56.397Z,2.20
2022-09-18T10:53:38.763Z,2.30
2022-09-18T10:56:26.529Z,2.47
2022-09-18T10:58:57.572Z,2.40
2022-09-18T11:01:25.937Z,2.58
2022-09-18T11:04:00.852Z,2.45
2022-09-18T11:06:34.347Z,2.10
2022-09-18T11:09:19.988Z,1.52
2022-09-18T11:11:51.590Z,1.73
2022-09-18T11:14:27.862Z,1.45
2022-09-18T11:17:05.910Z,1.77
2022-09-18T11:19:39.556Z,1.63
2022-09-18T11:22:44.332Z,1.63
2022-09-18T11:25:22.555Z,1.80
2022-09-18T11:27:54.827Z,1.50
2022-09-18T11:30:33.339Z,1.65
2022-09-18T11:33:19.340Z,1.00
2022-09-18T11:35:59.849Z,0.93
2022-09-18T11:38:31.218Z,1.30
2022-09-18T11:41:01.715Z,1.10
2022-09-18T11:43:40.044Z,1.08
2022-09-18T11:46:24.005Z,1.10
2022-09-18T11:49:04.482Z,1.00
2022-09-18T11:52:05.207Z,1.27
2022-09-18T11:54:57.709Z,0.85
2022-09-18T11:57:51.023Z,0.50
2022-09-18T12:00:22.350Z,0.20
2022-09-18T12:03:20.916Z,0.20
2022-09-18T12:05:54.486Z,0.32
2022-09-18T12:08:39.302Z,0.20
2022-09-18T12:11:33.029Z,0.22
2022-09-18T12:14:11.348Z,0.75
2022-09-18T12:16:46.118Z,0.50
2022-09-18T12:19:23.365Z,0.40
2022-09-18T12:22:06.601Z,0.45
2022-09-18T12:24:34.268Z,0.55
2022-09-18T12:27:28.532Z,0.40
2022-09-18T12:29:59.220Z,0.60
2022-09-18T12:32:48.123Z,0.90
2022-09-18T12:35:15.636Z,1.45
2022-09-18T12:37:57.516Z,1.00
2022-09-18T12:40:29.028Z,1.20
2022-09-18T12:43:14.766Z,1.10
2022-09-18T12:45:47.940Z,1.40
2022-09-18T12:51:03.739Z,1.40
2022-09-18T12:53:43.449Z,1.63
2022-09-18T12:56:11.265Z,1.42
2022-09-18T12:58:57.614Z,1.27
2022-09-18T13:01:25.222Z,1.40
2022-09-18T13:03:55.933Z,1.92
2022-09-18T13:06:43.690Z,1.40
2022-09-18T13:09:30.244Z,1.20
2022-09-18T13:12:05.734Z,1.50
2022-09-18T13:14:47.883Z,1.98
2022-09-18T13:17:21.175Z,1.65
2022-09-18T13:19:54.630Z,2.10
2022-09-18T13:22:25.531Z,2.42
2022-09-18T13:25:13.020Z,2.78
2022-09-18T13:27:40.766Z,2.33
2022-09-18T13:30:17.665Z,2.08
2022-09-18T13:32:45.187Z,2.35
2022-09-18T13:35:12.676Z,1.90
2022-09-18T13:37:41.871Z,1.95
2022-09-18T13:41:02.095Z,2.42
2022-09-18T13:43:29.634Z,2.30
2022-09-18T13:46:00.864Z,2.20
2022-09-18T13:48:34.400Z,1.90
2022-09-18T13:51:07.449Z,2.00
2022-09-18T13:53:41.983Z,2.17
2022-09-18T13:56:12.364Z,1.90
2022-09-18T13:58:54.362Z,2.38
2022-09-18T14:01:40.080Z,2.25
2022-09-18T14:04:42.252Z,2.20
2022-09-18T14:07:18.417Z,1.40
2022-09-18T14:09:58.215Z,1.65
2022-09-18T14:12:32.130Z,1.20
2022-09-18T14:15:15.712Z,1.48
2022-09-18T14:18:14.556Z,1.20
2022-09-18T14:20:49.404Z,1.35
2022-09-18T14:23:35.496Z,1.10
2022-09-18T14:26:09.137Z,1.17
2022-09-18T14:28:38.011Z,1.00
2022-09-18T14:31:28.180Z,0.93
2022-09-18T14:34:12.489Z,0.80
2022-09-18T14:36:50.615Z,1.20
2022-09-18T14:39:37.893Z,1.60
2022-09-18T14:42:30.790Z,1.10
2022-09-18T14:45:26.104Z,1.10
2022-09-18T14:47:53.951Z,0.80
2022-09-18T14:50:31.154Z,1.48
2022-09-18T14:53:01.311Z,0.70
2022-09-18T14:55:40.922Z,0.73
2022-09-18T14:58:15.038Z,0.82
2022-09-18T15:00:43.981Z,0.50
2022-09-18T15:03:21.057Z,0.57
2022-09-18T15:05:52.300Z,0.80
2022-09-18T15:08:26.477Z,0.50
2022-09-18T15:10:58.021Z,0.65
2022-09-18T15:13:26.114Z,0.47
2022-09-18T15:16:04.372Z,0.45
2022-09-18T15:18:40.955Z,0.65
2022-09-18T15:21:28.013Z,0.40
2022-09-18T15:24:02.301Z,0.30
2022-09-18T15:26:32.954Z,0.40
2022-09-18T15:29:02.747Z,0.40
2022-09-18T15:31:32.696Z,0.38
2022-09-18T15:34:06.680Z,0.50
2022-09-18T15:36:37.911Z,0.47
2022-09-18T15:39:06.503Z,0.50
2022-09-18T15:41:33.997Z,0.43
2022-09-18T15:44:01.790Z,0.30
2022-09-18T15:46:38.374Z,0.40
2022-09-18T15:49:29.109Z,0.50
2022-09-18T15:51:56.776Z,0.57
2022-09-18T15:54:27.144Z,0.40
2022-09-18T15:56:57.713Z,0.50
2022-09-18T15:59:28.684Z,0.63
2022-09-18T16:01:56.964Z,0.52
2022-09-18T16:04:27.004Z,0.80
2022-09-18T16:07:00.874Z,0.55
2022-09-18T16:09:43.934Z,0.65
2022-09-18T16:12:29.671Z,0.50
2022-09-18T16:15:04.630Z,0.60
2022-09-18T16:17:36.953Z,0.70
2022-09-18T16:20:23.403Z,0.60
2022-09-18T16:22:53.183Z,0.75
2022-09-18T16:25:25.288Z,0.40
2022-09-18T16:27:56.391Z,0.30
2022-09-18T16:30:26.111Z,0.70
2022-09-18T16:33:28.018Z,0.70
2022-09-18T16:36:07.904Z,0.60
2022-09-18T16:38:35.543Z,0.50
2022-09-18T16:41:03.186Z,0.65
2022-09-18T16:43:30.742Z,0.50
2022-09-18T16:45:58.214Z,0.47
2022-09-18T16:48:25.922Z,0.45
2022-09-18T16:50:53.557Z,0.70
2022-09-18T16:53:21.204Z,0.93
2022-09-18T16:55:53.390Z,0.80
2022-09-18T16:58:22.834Z,0.70
2022-09-18T17:00:50.536Z,0.88
2022-09-18T17:03:18.481Z,1.25
2022-09-18T17:05:46.575Z,0.70
2022-09-18T17:08:14.124Z,0.68
2022-09-18T17:10:45.017Z,0.70
2022-09-18T17:13:13.636Z,0.70
2022-09-18T17:15:41.208Z,1.00
2022-09-18T17:18:08.804Z,0.80
2022-09-18T17:20:36.432Z,0.60
2022-09-18T17:23:03.888Z,0.80
2022-09-18T17:25:31.538Z,0.80
2022-09-18T17:27:59.196Z,1.15
2022-09-18T17:30:26.922Z,1.00
2022-09-18T17:32:54.507Z,0.73
2022-09-18T17:35:22.266Z,0.90
2022-09-18T17:37:51.692Z,1.10
2022-09-18T17:40:19.513Z,1.10
2022-09-18T17:42:47.268Z,1.50
2022-09-18T17:45:15.053Z,1.50
2022-09-18T17:47:42.708Z,1.38
2022-09-18T17:50:10.579Z,1.00
2022-09-18T17:52:38.305Z,1.00
2022-09-18T17:55:06.398Z,1.33
2022-09-18T17:57:35.382Z,0.90
2022-09-18T18:00:04.436Z,0.80
2022-09-18T18:02:40.536Z,0.90
2022-09-18T18:05:08.466Z,1.35
2022-09-18T18:07:35.945Z,1.00
2022-09-18T18:10:03.821Z,7.85
2022-09-18T18:12:31.339Z,7.70
2022-09-18T18:14:58.911Z,3.08
2022-09-18T18:17:26.261Z,2.30
2022-09-18T18:19:53.771Z,1.05
2022-09-18T18:22:21.510Z,1.75
2022-09-18T18:24:49.651Z,1.70
2022-09-18T18:27:19.995Z,1.40
2022-09-18T18:29:53.703Z,1.75
2022-09-18T18:32:21.568Z,1.27
2022-09-18T18:34:49.937Z,1.13
2022-09-18T18:37:17.434Z,1.88
2022-09-18T18:39:44.972Z,1.65
2022-09-18T18:42:12.416Z,2.17
2022-09-18T18:44:41.832Z,2.00
2022-09-18T18:47:09.343Z,1.52
2022-09-18T18:49:37.873Z,1.67
2022-09-18T18:52:05.423Z,1.80
2022-09-18T18:54:32.855Z,1.63
2022-09-18T18:57:01.003Z,2.38
2022-09-18T18:59:28.589Z,2.20
2022-09-18T19:01:57.671Z,2.80
2022-09-18T19:04:26.091Z,2.17
2022-09-18T19:06:53.954Z,1.70
2022-09-18T19:09:24.438Z,1.83
2022-09-18T19:11:52.856Z,1.73
2022-09-18T19:14:34.326Z,1.50
2022-09-18T19:17:01.760Z,1.80
2022-09-18T19:19:29.439Z,2.28
2022-09-18T19:22:00.230Z,2.60
2022-09-18T19:24:29.989Z,2.60
2022-09-18T19:26:58.935Z,2.78
2022-09-18T19:29:27.396Z,3.08
2022-09-18T19:31:54.905Z,2.58
2022-09-18T19:34:22.505Z,3.47
2022-09-18T19:36:51.836Z,2.10
2022-09-18T19:39:21.965Z,1.77
2022-09-18T19:41:55.446Z,2.17
2022-09-18T19:44:26.632Z,1.77
2022-09-18T19:46:57.498Z,1.50
2022-09-18T19:49:33.685Z,1.60
2022-09-18T19:52:02.079Z,2.03
2022-09-18T19:54:31.070Z,2.40
2022-09-18T19:56:59.191Z,2.35
2022-09-18T19:59:26.839Z,1.75
2022-09-18T20:01:55.202Z,1.67
2022-09-18T20:04:22.924Z,1.48
2022-09-18T20:06:50.497Z,2.88
2022-09-18T20:09:18.125Z,1.60
2022-09-18T20:11:48.229Z,1.58
2022-09-18T20:14:16.185Z,1.40
2022-09-18T20:16:43.545Z,1.67
2022-09-18T20:19:11.030Z,1.80
2022-09-18T20:21:38.472Z,1.48
2022-09-18T20:24:06.222Z,1.27
2022-09-18T20:26:33.707Z,1.33
2022-09-18T20:29:01.215Z,1.83
2022-09-18T20:31:29.081Z,1.70
2022-09-18T20:33:57.922Z,1.15
2022-09-18T20:36:26.560Z,1.70
2022-09-18T20:39:01.876Z,1.70
2022-09-18T20:41:30.071Z,1.85
2022-09-18T20:44:02.963Z,2.15
2022-09-18T20:46:35.147Z,1.27
2022-09-18T20:49:06.381Z,1.90
2022-09-18T20:51:35.901Z,2.75
2022-09-18T20:54:07.016Z,1.65
2022-09-18T20:56:41.436Z,1.70
2022-09-18T20:59:13.385Z,1.95
2022-09-18T21:01:43.834Z,1.60
2022-09-18T21:04:17.353Z,1.75
2022-09-18T21:06:55.217Z,1.73
2022-09-18T21:09:28.934Z,2.17
2022-09-18T21:11:56.972Z,1.30
2022-09-18T21:14:25.590Z,1.35
2022-09-18T21:16:53.421Z,1.20
2022-09-18T21:19:20.849Z,1.10
2022-09-18T21:21:48.815Z,1.00
2022-09-18T21:24:17.414Z,1.30
2022-09-18T21:26:47.907Z,1.20
2022-09-18T21:29:20.652Z,1.23
2022-09-18T21:31:50.553Z,0.93
2022-09-18T21:34:27.155Z,1.20
2022-09-18T21:36:57.761Z,1.55
2022-09-18T21:39:28.210Z,1.10
2022-09-18T21:41:57.923Z,1.10
2022-09-18T21:44:29.590Z,0.93
2022-09-18T21:47:02.123Z,1.05
2022-09-18T21:49:30.460Z,0.73
2022-09-18T21:52:06.446Z,1.13
2022-09-18T21:54:34.335Z,0.80
2022-09-18T21:57:02.187Z,0.80
2022-09-18T21:59:31.465Z,0.90
2022-09-18T22:02:00.669Z,1.13
2022-09-18T22:04:30.082Z,0.80
2022-09-18T22:07:00.003Z,0.57
2022-09-18T22:09:30.369Z,0.60
2022-09-18T22:11:58.711Z,0.70
2022-09-18T22:14:32.298Z,0.90
2022-09-18T22:17:02.157Z,1.13
2022-09-18T22:19:30.523Z,0.40
2022-09-18T22:21:58.209Z,0.85
2022-09-18T22:24:27.469Z,0.70
2022-09-18T22:27:00.345Z,1.23
2022-09-18T22:29:30.768Z,1.10
2022-09-18T22:31:59.532Z,0.70
2022-09-18T22:34:30.298Z,1.00
2022-09-18T22:36:59.199Z,1.00
2022-09-18T22:39:27.185Z,0.60
2022-09-18T22:41:54.965Z,0.93
2022-09-18T22:44:22.859Z,0.82
2022-09-18T22:46:55.069Z,1.10
2022-09-18T22:49:23.561Z,0.85
2022-09-18T22:51:52.131Z,0.77
2022-09-18T22:54:24.820Z,0.80
2022-09-18T22:56:52.831Z,0.60
2022-09-18T22:59:23.949Z,1.10
2022-09-18T23:01:56.418Z,1.00
2022-09-18T23:04:28.035Z,0.75
2022-09-18T23:06:57.126Z,0.88
2022-09-18T23:09:25.259Z,0.85
2022-09-18T23:11:53.510Z,0.68
2022-09-18T23:14:25.923Z,1.67
2022-09-18T23:16:54.180Z,0.52
2022-09-18T23:19:25.944Z,0.40
2022-09-18T23:21:54.252Z,0.60
2022-09-18T23:24:22.672Z,0.80
2022-09-18T23:26:51.750Z,0.40
2022-09-18T23:29:21.365Z,0.80
2022-09-18T23:31:52.945Z,0.65
2022-09-18T23:34:23.703Z,0.70
2022-09-18T23:36:54.288Z,0.80
2022-09-18T23:39:28.705Z,0.60
2022-09-18T23:41:58.862Z,0.90
2022-09-18T23:44:28.652Z,0.60
2022-09-18T23:46:56.419Z,0.65
2022-09-18T23:49:24.271Z,0.70
2022-09-18T23:51:54.725Z,0.63
2022-09-18T23:54:25.093Z,0.70
2022-09-18T23:56:53.432Z,0.80
2022-09-18T23:59:23.324Z,0.43
